Time;durP1;ratioP1;P1;durP2;ratioP2;P2;SDS_P1;SDS_P2;PMS_P1;PMS_P2;Temp;Humidity;BMP_temperature;BMP_pressure;BME280_temperature;BME280_humidity;BME280_pressure;Samples;Min_cycle;Max_cycle;Signal;HPM_P1;HPM_P2
2021/06/30 00:02:00;;;;;;;10.48;9.38;;;19.80;99.90;;;;;;5031544;28;20116;-76
2021/06/30 00:04:26;;;;;;;9.88;8.23;;;19.80;99.90;;;;;;5028954;28;20112;-79
2021/06/30 00:06:52;;;;;;;11.85;8.13;;;19.80;99.90;;;;;;5030138;28;20033;-77
2021/06/30 00:09:18;;;;;;;9.02;8.18;;;19.70;99.90;;;;;;5030773;28;20033;-77
2021/06/30 00:11:44;;;;;;;8.23;7.22;;;19.60;99.90;;;;;;5030497;28;20022;-77
2021/06/30 00:14:10;;;;;;;7.72;6.75;;;19.50;99.90;;;;;;5029775;28;20049;-76
2021/06/30 00:16:36;;;;;;;6.32;5.72;;;19.40;99.90;;;;;;5029703;28;20056;-75
2021/06/30 00:19:05;;;;;;;7.03;6.32;;;19.40;99.90;;;;;;5029660;28;20433;-77
2021/06/30 00:21:30;;;;;;;8.88;6.72;;;19.40;99.90;;;;;;5029936;28;20485;-80
2021/06/30 00:23:56;;;;;;;7.53;6.82;;;19.50;99.90;;;;;;5029386;28;20075;-80
2021/06/30 00:26:22;;;;;;;6.07;5.55;;;19.50;99.90;;;;;;5029490;28;20029;-77
2021/06/30 00:28:47;;;;;;;5.30;4.00;;;19.50;99.90;;;;;;5029372;28;20035;-74
2021/06/30 00:31:15;;;;;;;4.15;3.75;;;19.40;99.90;;;;;;5030685;28;20389;-75
2021/06/30 00:33:40;;;;;;;3.75;3.45;;;19.40;99.90;;;;;;5027440;28;20026;-77
2021/06/30 00:36:06;;;;;;;3.30;3.10;;;19.40;99.90;;;;;;5030773;28;20033;-77
2021/06/30 00:38:32;;;;;;;3.65;3.05;;;19.30;99.90;;;;;;5029398;28;20067;-75
2021/06/30 00:40:57;;;;;;;4.00;3.22;;;19.10;99.90;;;;;;5029466;28;20378;-77
2021/06/30 00:43:23;;;;;;;4.35;3.95;;;19.10;99.90;;;;;;5026068;28;20056;-79
2021/06/30 00:45:49;;;;;;;4.32;3.83;;;19.10;99.90;;;;;;5031840;28;20016;-78
2021/06/30 00:48:15;;;;;;;4.47;4.07;;;19.10;99.90;;;;;;5026705;28;20167;-77
2021/06/30 00:50:40;;;;;;;6.07;4.70;;;19.10;99.90;;;;;;5027950;28;20041;-76
2021/06/30 00:53:06;;;;;;;4.72;4.32;;;19.00;99.90;;;;;;5027963;28;20040;-78
2021/06/30 00:55:32;;;;;;;5.50;4.47;;;19.00;99.90;;;;;;5043459;28;20036;-80
2021/06/30 00:57:58;;;;;;;5.00;4.50;;;19.00;99.90;;;;;;5030528;28;20485;-75
2021/06/30 01:00:24;;;;;;;5.47;4.97;;;19.00;99.90;;;;;;5028978;28;20021;-73
2021/06/30 01:02:50;;;;;;;5.57;4.28;;;19.00;99.90;;;;;;5027864;28;20033;-74
2021/06/30 01:05:16;;;;;;;5.28;4.78;;;19.10;99.90;;;;;;5031113;28;20434;-73
2021/06/30 01:07:46;;;;;;;4.80;4.18;;;19.00;99.90;;;;;;5029640;28;20025;-74
2021/06/30 01:10:11;;;;;;;7.75;4.93;;;19.00;99.90;;;;;;5030849;28;20490;-74
2021/06/30 01:12:37;;;;;;;6.47;4.95;;;19.00;99.90;;;;;;5029603;28;20029;-74
2021/06/30 01:15:08;;;;;;;6.55;4.90;;;19.10;99.90;;;;;;5030573;28;20033;-73
2021/06/30 01:17:34;;;;;;;6.38;5.13;;;19.00;99.90;;;;;;5034319;28;20056;-74
2021/06/30 01:20:01;;;;;;;6.18;5.43;;;18.90;99.90;;;;;;5033092;28;20064;-73
2021/06/30 01:22:26;;;;;;;6.05;5.55;;;18.90;99.90;;;;;;5031738;28;20026;-80
2021/06/30 01:24:53;;;;;;;9.15;5.82;;;18.90;99.90;;;;;;5035509;28;20490;-79
2021/06/30 01:27:21;;;;;;;6.60;5.18;;;18.80;99.90;;;;;;5033609;28;20535;-77
2021/06/30 01:29:47;;;;;;;7.03;6.32;;;18.80;99.90;;;;;;5033298;28;20032;-78
2021/06/30 01:32:13;;;;;;;5.82;5.32;;;18.80;99.90;;;;;;5033475;28;20021;-77
2021/06/30 01:34:38;;;;;;;8.60;5.40;;;18.80;99.90;;;;;;5028830;28;20034;-78
2021/06/30 01:37:04;;;;;;;5.43;4.78;;;18.80;99.90;;;;;;5032452;28;20063;-79
2021/06/30 01:39:30;;;;;;;7.18;5.47;;;18.80;99.90;;;;;;5032444;28;20022;-80
2021/06/30 01:41:56;;;;;;;5.40;4.65;;;18.80;99.90;;;;;;5028714;28;20060;-80
2021/06/30 01:44:22;;;;;;;6.00;5.20;;;18.80;99.90;;;;;;5030542;28;20064;-80
2021/06/30 01:46:48;;;;;;;5.60;5.00;;;18.90;99.90;;;;;;5033193;28;20045;-79
2021/06/30 01:49:14;;;;;;;5.90;5.32;;;18.80;99.90;;;;;;5031414;28;20056;-78
2021/06/30 01:51:40;;;;;;;6.45;4.85;;;18.90;99.90;;;;;;5033919;28;20105;-76
2021/06/30 01:54:13;;;;;;;6.65;5.22;;;18.90;99.90;;;;;;5028746;28;20079;-81
2021/06/30 01:56:39;;;;;;;4.65;4.25;;;18.80;99.90;;;;;;5033285;28;20034;-76
2021/06/30 01:59:06;;;;;;;4.25;3.90;;;18.90;99.90;;;;;;5032229;28;20021;-78
2021/06/30 02:01:32;;;;;;;6.20;3.90;;;18.90;99.90;;;;;;5031092;28;20104;-77
2021/06/30 02:03:59;;;;;;;9.77;4.25;;;19.00;99.90;;;;;;5031356;28;20096;-78
2021/06/30 02:06:27;;;;;;;4.38;3.97;;;19.00;99.90;;;;;;5031401;28;20034;-78
2021/06/30 02:08:56;;;;;;;3.70;3.40;;;19.00;99.90;;;;;;5031053;28;20051;-77
2021/06/30 02:11:22;;;;;;;5.05;4.40;;;19.00;99.90;;;;;;5032545;28;20024;-77
2021/06/30 02:13:48;;;;;;;5.30;4.28;;;18.90;99.90;;;;;;5029333;28;20084;-77
2021/06/30 02:16:14;;;;;;;6.50;4.68;;;18.80;99.90;;;;;;5031617;28;20037;-79
2021/06/30 02:18:40;;;;;;;4.78;4.13;;;18.80;99.90;;;;;;5030466;28;20065;-76
2021/06/30 02:21:06;;;;;;;4.55;4.15;;;18.80;99.90;;;;;;5025752;28;20064;-75
2021/06/30 02:23:32;;;;;;;4.90;4.40;;;18.70;99.90;;;;;;5030782;28;20029;-79
2021/06/30 02:25:58;;;;;;;5.57;4.72;;;18.80;99.90;;;;;;5032457;28;20021;-81
2021/06/30 02:28:24;;;;;;;4.72;4.32;;;18.70;99.90;;;;;;5031717;28;20025;-80
2021/06/30 02:30:50;;;;;;;4.72;4.32;;;18.70;99.90;;;;;;5031437;28;20037;-79
2021/06/30 02:33:15;;;;;;;5.25;4.75;;;18.80;99.90;;;;;;5027840;28;20546;-78
2021/06/30 02:35:41;;;;;;;5.60;5.18;;;18.80;99.90;;;;;;5032753;28;20037;-78
2021/06/30 02:38:07;;;;;;;4.88;4.47;;;18.80;99.90;;;;;;5031176;28;20037;-78
2021/06/30 02:40:33;;;;;;;5.32;4.93;;;18.70;99.90;;;;;;5031162;28;20068;-78
2021/06/30 02:42:59;;;;;;;6.07;5.47;;;18.60;99.90;;;;;;5029005;28;20026;-78
2021/06/30 02:45:24;;;;;;;6.15;5.60;;;18.70;99.90;;;;;;5029233;28;20025;-78
2021/06/30 02:47:51;;;;;;;6.18;5.68;;;18.60;99.90;;;;;;5026915;28;20439;-78
2021/06/30 02:50:18;;;;;;;5.88;5.47;;;18.60;99.90;;;;;;5034061;28;20048;-78
2021/06/30 02:52:45;;;;;;;6.13;5.57;;;18.60;99.90;;;;;;5031585;28;20025;-80
2021/06/30 02:55:12;;;;;;;6.80;6.28;;;18.60;99.90;;;;;;5029598;28;20531;-80
2021/06/30 02:57:38;;;;;;;5.95;5.45;;;18.60;99.90;;;;;;5030987;28;20032;-77
2021/06/30 03:00:20;;;;;;;5.72;5.22;;;18.50;99.90;;;;;;5033946;28;20022;-78
2021/06/30 03:02:47;;;;;;;5.43;4.68;;;18.50;99.90;;;;;;5029231;28;20022;-81
2021/06/30 03:05:13;;;;;;;5.85;5.35;;;18.50;99.90;;;;;;5032305;28;20048;-79
2021/06/30 03:07:38;;;;;;;6.05;4.97;;;18.50;99.90;;;;;;5030245;28;20026;-76
2021/06/30 03:10:09;;;;;;;5.07;4.70;;;18.40;99.90;;;;;;5033046;28;20509;-80
2021/06/30 03:12:35;;;;;;;4.80;4.50;;;18.40;99.90;;;;;;5030594;28;20044;-78
2021/06/30 03:15:03;;;;;;;4.72;4.43;;;18.30;99.90;;;;;;5031974;28;20112;-78
2021/06/30 03:17:31;;;;;;;4.47;4.13;;;18.30;99.90;;;;;;5031043;28;20037;-80
2021/06/30 03:19:56;;;;;;;4.45;4.05;;;18.30;99.90;;;;;;5030839;28;20049;-79
2021/06/30 03:22:22;;;;;;;4.30;3.90;;;18.20;99.90;;;;;;5031292;28;20065;-76
2021/06/30 03:24:47;;;;;;;5.97;4.40;;;18.20;99.90;;;;;;5033506;28;20025;-81
2021/06/30 03:27:13;;;;;;;5.00;4.60;;;18.20;99.90;;;;;;5029417;28;20029;-83
2021/06/30 03:29:38;;;;;;;6.68;4.65;;;18.20;99.90;;;;;;5029760;28;20480;-86
2021/06/30 03:32:05;;;;;;;5.25;4.75;;;18.30;99.90;;;;;;5030513;28;20424;-87
2021/06/30 03:34:30;;;;;;;4.45;4.05;;;18.30;99.90;;;;;;5031654;28;20040;-81
2021/06/30 03:36:56;;;;;;;5.10;4.22;;;18.30;99.90;;;;;;5031160;28;20104;-83
2021/06/30 03:39:21;;;;;;;4.55;4.15;;;18.30;99.90;;;;;;5028393;28;20030;-82
2021/06/30 03:41:47;;;;;;;4.10;3.80;;;18.20;99.90;;;;;;5029309;28;20025;-77
2021/06/30 03:44:13;;;;;;;4.60;4.30;;;18.20;99.90;;;;;;5031112;28;20144;-79
2021/06/30 03:46:38;;;;;;;5.60;5.13;;;18.20;99.90;;;;;;5024471;28;20022;-79
2021/06/30 03:49:04;;;;;;;4.65;4.25;;;18.20;99.90;;;;;;5028896;28;20397;-80
2021/06/30 03:51:29;;;;;;;6.35;4.13;;;18.20;99.90;;;;;;5028433;28;20258;-79
2021/06/30 03:53:55;;;;;;;5.15;4.60;;;18.20;99.90;;;;;;5031069;28;20418;-77
2021/06/30 03:56:25;;;;;;;5.07;4.35;;;18.10;99.90;;;;;;5044715;28;20597;-80
2021/06/30 03:58:55;;;;;;;4.80;4.40;;;18.00;99.90;;;;;;5021788;28;20025;-76
2021/06/30 04:01:21;;;;;;;6.63;6.03;;;18.00;99.90;;;;;;5031018;28;20490;-76
2021/06/30 04:03:53;;;;;;;5.50;5.07;;;18.00;99.90;;;;;;5025499;28;20100;-75
2021/06/30 04:06:19;;;;;;;5.53;5.03;;;18.00;99.90;;;;;;5024983;28;20473;-75
2021/06/30 04:08:44;;;;;;;4.78;4.47;;;18.10;99.90;;;;;;5028819;28;20025;-81
2021/06/30 04:11:10;;;;;;;5.70;5.28;;;18.00;99.90;;;;;;5028599;28;20062;-81
2021/06/30 04:13:36;;;;;;;5.85;5.25;;;18.00;99.90;;;;;;5030800;28;20440;-82
2021/06/30 04:16:01;;;;;;;6.32;5.55;;;18.00;99.90;;;;;;5033023;28;20541;-84
2021/06/30 04:18:28;;;;;;;5.47;4.97;;;18.00;99.90;;;;;;5030395;28;20488;-87
2021/06/30 04:20:53;;;;;;;6.03;5.53;;;18.00;99.90;;;;;;5029941;28;20025;-82
2021/06/30 04:23:19;;;;;;;4.75;4.35;;;18.00;99.90;;;;;;5030264;28;20076;-79
2021/06/30 04:25:47;;;;;;;5.07;4.68;;;18.00;99.90;;;;;;5022926;28;20033;-81
2021/06/30 04:28:13;;;;;;;4.50;4.20;;;17.90;99.90;;;;;;5026820;28;20035;-84
2021/06/30 04:30:39;;;;;;;4.80;4.18;;;17.90;99.90;;;;;;5031304;28;20370;-83
2021/06/30 04:33:05;;;;;;;6.45;4.75;;;17.90;99.90;;;;;;5030034;28;20025;-83
2021/06/30 04:35:30;;;;;;;4.57;4.18;;;18.00;99.90;;;;;;5022596;28;20037;-85
2021/06/30 04:37:56;;;;;;;4.63;4.32;;;17.80;99.90;;;;;;5029039;28;20366;-80
2021/06/30 04:40:22;;;;;;;6.22;4.82;;;17.80;99.90;;;;;;5031850;28;20017;-81
2021/06/30 04:42:48;;;;;;;4.95;4.55;;;17.90;99.90;;;;;;5027845;28;20021;-81
2021/06/30 04:45:13;;;;;;;4.68;4.20;;;17.90;99.90;;;;;;5030227;28;20028;-86
2021/06/30 04:47:39;;;;;;;4.75;4.40;;;17.80;99.90;;;;;;5031043;28;20401;-85
2021/06/30 04:50:05;;;;;;;4.97;4.20;;;17.80;99.90;;;;;;5025992;28;20029;-81
2021/06/30 04:52:31;;;;;;;5.00;4.45;;;17.90;99.90;;;;;;5031728;28;20033;-77
2021/06/30 04:54:57;;;;;;;3.83;3.35;;;17.80;99.90;;;;;;5024131;28;20362;-77
2021/06/30 04:57:22;;;;;;;3.92;3.58;;;17.90;99.90;;;;;;5030384;28;20029;-77
2021/06/30 04:59:48;;;;;;;4.63;4.00;;;17.90;99.90;;;;;;5029327;28;20048;-76
2021/06/30 05:02:15;;;;;;;3.83;3.53;;;17.90;99.90;;;;;;5028287;28;20025;-77
2021/06/30 05:04:41;;;;;;;4.07;3.67;;;17.90;99.90;;;;;;5026095;28;20397;-74
2021/06/30 05:07:07;;;;;;;4.03;3.63;;;17.90;99.90;;;;;;5028517;28;20033;-76
2021/06/30 05:09:32;;;;;;;4.18;3.88;;;17.90;99.90;;;;;;5028356;28;20053;-77
2021/06/30 05:11:58;;;;;;;3.80;3.40;;;18.00;99.90;;;;;;5030274;28;20030;-76
2021/06/30 05:14:24;;;;;;;3.90;3.60;;;18.00;99.90;;;;;;5029578;28;20105;-76
2021/06/30 05:16:49;;;;;;;3.75;3.45;;;17.90;99.90;;;;;;5030086;28;20393;-75
2021/06/30 05:19:15;;;;;;;3.67;3.38;;;17.90;99.90;;;;;;5030149;28;20092;-75
2021/06/30 05:21:40;;;;;;;3.55;3.25;;;18.00;99.90;;;;;;5028596;28;20021;-74
2021/06/30 05:24:07;;;;;;;3.83;2.90;;;18.00;99.90;;;;;;5029626;28;20029;-72
2021/06/30 05:26:33;;;;;;;3.08;2.88;;;18.00;99.90;;;;;;5027417;28;20157;-75
2021/06/30 05:28:58;;;;;;;3.33;2.88;;;18.00;99.90;;;;;;5023114;28;20041;-74
2021/06/30 05:31:24;;;;;;;4.90;3.60;;;18.00;99.90;;;;;;5028966;28;20048;-74
2021/06/30 05:33:50;;;;;;;4.50;4.20;;;17.90;99.90;;;;;;5025401;28;20025;-75
2021/06/30 05:36:16;;;;;;;4.88;4.40;;;17.90;99.90;;;;;;5029810;28;20045;-74
2021/06/30 05:38:42;;;;;;;5.38;4.93;;;17.90;99.90;;;;;;5028549;28;20033;-74
2021/06/30 05:41:12;;;;;;;6.40;5.80;;;17.80;99.90;;;;;;5029252;28;20029;-74
2021/06/30 05:43:38;;;;;;;5.50;5.00;;;17.90;99.90;;;;;;5028452;28;20034;-73
2021/06/30 05:46:06;;;;;;;6.50;5.90;;;17.90;99.90;;;;;;5023906;28;20033;-74
2021/06/30 05:48:32;;;;;;;5.85;5.35;;;17.90;99.90;;;;;;5028769;28;20113;-74
2021/06/30 05:50:59;;;;;;;6.97;6.38;;;17.80;99.90;;;;;;5044997;28;20553;-71
2021/06/30 05:53:25;;;;;;;5.47;5.07;;;17.80;99.90;;;;;;5026454;28;20037;-72
2021/06/30 05:55:51;;;;;;;5.63;5.20;;;17.70;99.90;;;;;;5027458;28;20067;-72
2021/06/30 05:58:16;;;;;;;6.68;6.18;;;17.60;99.90;;;;;;5024338;28;20033;-73
2021/06/30 06:00:42;;;;;;;8.60;5.97;;;17.70;99.90;;;;;;5028266;28;20087;-73
2021/06/30 06:03:09;;;;;;;6.35;5.85;;;17.70;99.90;;;;;;5030820;28;20026;-74
2021/06/30 06:05:35;;;;;;;6.70;5.25;;;17.70;99.90;;;;;;5028663;28;20394;-74
2021/06/30 06:08:01;;;;;;;6.07;5.57;;;17.80;99.90;;;;;;5032236;28;20041;-73
2021/06/30 06:10:27;;;;;;;6.35;5.85;;;17.80;99.90;;;;;;5033491;28;20130;-74
2021/06/30 06:12:53;;;;;;;8.20;5.90;;;17.80;99.90;;;;;;5030966;28;20060;-72
2021/06/30 06:15:18;;;;;;;6.10;5.60;;;17.90;99.90;;;;;;5032282;28;20029;-74
2021/06/30 06:17:44;;;;;;;6.30;5.80;;;17.70;99.90;;;;;;5031913;28;20047;-83
2021/06/30 06:20:11;;;;;;;6.43;5.80;;;17.70;99.90;;;;;;5028480;28;20028;-76
2021/06/30 06:22:37;;;;;;;5.78;5.28;;;17.60;99.90;;;;;;5031265;28;20036;-80
2021/06/30 06:25:07;;;;;;;6.45;5.85;;;17.70;99.90;;;;;;5031859;28;20423;-80
2021/06/30 06:27:33;;;;;;;6.82;5.53;;;17.80;99.90;;;;;;5031490;28;20011;-82
2021/06/30 06:30:00;;;;;;;5.22;4.82;;;17.80;99.90;;;;;;5029455;28;20041;-78
2021/06/30 06:32:25;;;;;;;5.50;5.00;;;17.70;99.90;;;;;;5026976;28;20032;-76
2021/06/30 06:34:51;;;;;;;5.18;4.78;;;17.70;99.90;;;;;;5031299;28;20029;-75
2021/06/30 06:37:18;;;;;;;5.53;5.03;;;17.70;99.90;;;;;;5027959;28;20400;-74
2021/06/30 06:39:44;;;;;;;4.50;4.15;;;17.70;99.90;;;;;;5030599;28;20029;-72
2021/06/30 06:42:11;;;;;;;4.60;4.20;;;17.70;99.90;;;;;;5033176;28;20361;-71
2021/06/30 06:44:39;;;;;;;5.35;4.85;;;17.70;99.90;;;;;;5028546;28;20033;-75
2021/06/30 06:47:04;;;;;;;4.68;4.32;;;17.60;99.90;;;;;;5026102;28;20033;-74
2021/06/30 06:49:30;;;;;;;4.85;4.35;;;17.50;99.90;;;;;;5030905;28;20038;-74
2021/06/30 06:51:58;;;;;;;4.40;4.00;;;17.60;99.90;;;;;;5029302;28;20034;-71
2021/06/30 06:54:23;;;;;;;5.30;4.20;;;17.60;99.90;;;;;;5028618;28;20542;-77
2021/06/30 06:56:49;;;;;;;4.30;3.90;;;17.70;99.90;;;;;;5027194;28;20030;-78
2021/06/30 06:59:15;;;;;;;4.80;4.40;;;17.60;99.90;;;;;;5030633;28;20037;-77
2021/06/30 07:01:40;;;;;;;5.15;4.28;;;17.60;99.90;;;;;;5030675;28;20029;-76
2021/06/30 07:04:06;;;;;;;5.72;4.82;;;17.70;99.90;;;;;;5028435;28;20041;-76
2021/06/30 07:06:32;;;;;;;5.35;4.85;;;17.70;99.90;;;;;;5028780;28;20030;-77
2021/06/30 07:08:57;;;;;;;5.63;5.05;;;17.80;99.90;;;;;;5025749;28;20025;-73
2021/06/30 07:11:23;;;;;;;5.80;4.43;;;17.70;99.90;;;;;;5029821;28;20030;-74
2021/06/30 07:13:49;;;;;;;5.70;5.20;;;17.80;99.90;;;;;;5030190;28;20587;-71
2021/06/30 07:16:15;;;;;;;5.57;4.97;;;17.80;99.90;;;;;;5041113;28;21536;-71
2021/06/30 07:18:40;;;;;;;5.45;4.95;;;17.80;99.90;;;;;;5027148;28;20421;-71
2021/06/30 07:21:08;;;;;;;5.68;4.55;;;17.90;99.90;;;;;;5028614;28;20033;-73
2021/06/30 07:23:34;;;;;;;5.70;5.20;;;17.90;99.90;;;;;;5030882;28;20018;-71
2021/06/30 07:26:00;;;;;;;5.88;5.30;;;17.90;99.90;;;;;;5032218;28;20033;-72
2021/06/30 07:28:26;;;;;;;6.53;5.72;;;17.90;99.90;;;;;;5030623;28;20013;-70
2021/06/30 07:30:52;;;;;;;6.50;5.88;;;17.90;99.90;;;;;;5025607;28;20133;-73
2021/06/30 07:33:18;;;;;;;8.10;6.60;;;17.90;99.90;;;;;;5029938;28;20029;-75
2021/06/30 07:35:44;;;;;;;6.43;5.82;;;17.90;99.90;;;;;;5030187;28;20029;-71
2021/06/30 07:38:09;;;;;;;6.55;5.78;;;17.80;99.90;;;;;;5031593;28;20072;-71
2021/06/30 07:40:36;;;;;;;7.88;7.07;;;17.90;99.90;;;;;;5027090;28;20147;-72
2021/06/30 07:43:03;;;;;;;8.32;7.63;;;17.80;99.90;;;;;;5027488;28;20236;-73
2021/06/30 07:45:30;;;;;;;7.50;6.90;;;17.90;99.90;;;;;;5042904;28;20053;-72
2021/06/30 07:47:55;;;;;;;7.55;6.80;;;17.80;99.90;;;;;;5025225;28;20045;-71
2021/06/30 07:50:23;;;;;;;7.65;6.93;;;17.90;99.90;;;;;;5030844;28;20964;-71
2021/06/30 07:52:49;;;;;;;7.55;6.80;;;17.80;99.90;;;;;;5027074;28;20397;-71
2021/06/30 07:55:19;;;;;;;8.52;7.72;;;17.80;99.90;;;;;;5029390;28;20462;-71
2021/06/30 07:57:45;;;;;;;7.88;7.07;;;17.80;99.90;;;;;;5030148;28;20036;-71
2021/06/30 08:00:12;;;;;;;9.32;8.43;;;17.80;99.90;;;;;;5027354;28;20033;-71
2021/06/30 08:02:38;;;;;;;11.20;9.18;;;17.70;99.90;;;;;;5021391;28;20049;-71
2021/06/30 08:05:05;;;;;;;11.05;9.15;;;17.80;99.90;;;;;;5029878;28;20037;-71
2021/06/30 08:07:31;;;;;;;8.77;7.97;;;17.80;99.90;;;;;;5030077;28;20543;-71
2021/06/30 08:09:57;;;;;;;8.18;7.38;;;17.80;99.90;;;;;;5029759;28;20037;-71
2021/06/30 08:12:22;;;;;;;11.32;8.27;;;17.90;99.90;;;;;;5030816;28;20036;-71
2021/06/30 08:14:49;;;;;;;8.93;8.13;;;17.90;99.90;;;;;;5028490;28;20429;-71
2021/06/30 08:17:14;;;;;;;10.02;7.93;;;18.00;99.90;;;;;;5024873;28;20029;-72
2021/06/30 08:19:40;;;;;;;7.28;6.57;;;17.90;99.90;;;;;;5029118;28;20096;-72
2021/06/30 08:22:12;;;;;;;9.05;7.85;;;17.90;99.90;;;;;;5027820;28;20116;-72
2021/06/30 08:24:42;;;;;;;10.20;8.27;;;17.90;99.90;;;;;;5024404;28;20025;-71
2021/06/30 08:27:08;;;;;;;9.10;8.05;;;17.80;99.90;;;;;;5029163;28;20029;-71
2021/06/30 08:29:35;;;;;;;9.65;8.15;;;17.80;99.90;;;;;;5028650;28;20103;-72
2021/06/30 08:32:00;;;;;;;10.32;8.68;;;17.90;99.90;;;;;;5028562;28;20033;-72
2021/06/30 08:34:27;;;;;;;10.07;9.07;;;17.90;99.90;;;;;;5019821;28;20025;-71
2021/06/30 08:37:05;;;;;;;10.02;8.75;;;17.90;99.90;;;;;;5028347;28;20109;-71
2021/06/30 08:39:32;;;;;;;10.55;8.45;;;17.90;99.90;;;;;;5028751;28;20037;-71
2021/06/30 08:41:58;;;;;;;10.05;8.57;;;17.90;99.90;;;;;;5029868;28;20455;-71
2021/06/30 08:44:24;;;;;;;12.93;8.73;;;17.90;99.90;;;;;;5027921;28;20040;-70
2021/06/30 08:46:51;;;;;;;9.48;8.13;;;18.00;99.90;;;;;;5026417;28;20146;-71
2021/06/30 08:49:19;;;;;;;9.98;8.35;;;18.00;99.90;;;;;;5025762;28;20038;-72
2021/06/30 08:51:48;;;;;;;10.48;8.40;;;18.10;99.90;;;;;;5030733;28;20372;-71
2021/06/30 08:54:14;;;;;;;8.70;7.38;;;18.20;99.90;;;;;;5029866;28;20108;-72
2021/06/30 08:56:41;;;;;;;8.52;7.72;;;18.20;99.90;;;;;;5027116;28;20137;-71
2021/06/30 08:59:07;;;;;;;8.82;7.93;;;18.10;99.90;;;;;;5023173;28;20029;-72
2021/06/30 09:01:33;;;;;;;9.07;8.02;;;18.10;99.90;;;;;;5028248;28;20025;-71
2021/06/30 09:04:00;;;;;;;10.43;9.40;;;18.10;99.90;;;;;;5027286;28;20472;-71
2021/06/30 09:06:28;;;;;;;11.73;9.50;;;18.10;99.90;;;;;;5029417;28;20036;-71
2021/06/30 09:08:56;;;;;;;10.60;9.60;;;18.10;99.90;;;;;;5029721;28;20031;-71
2021/06/30 09:11:26;;;;;;;11.90;10.70;;;18.10;99.90;;;;;;5028693;28;20125;-71
2021/06/30 09:14:28;;;;;;;12.60;10.38;;;18.00;99.90;;;;;;5029299;28;20036;-72
2021/06/30 09:17:00;;;;;;;10.57;8.68;;;18.10;99.90;;;;;;5026190;28;20045;-71
2021/06/30 09:19:45;;;;;;;9.95;8.93;;;18.00;99.90;;;;;;5029457;28;20018;-71
2021/06/30 09:22:10;;;;;;;13.25;10.13;;;17.90;99.90;;;;;;5029656;28;20064;-71
2021/06/30 09:24:37;;;;;;;10.52;9.45;;;17.90;99.90;;;;;;5028510;28;20060;-71
2021/06/30 09:27:03;;;;;;;11.48;10.15;;;18.00;99.90;;;;;;5023364;28;20056;-72
2021/06/30 09:29:28;;;;;;;10.73;9.38;;;18.00;99.90;;;;;;5028345;28;20037;-71
2021/06/30 09:31:54;;;;;;;9.98;8.77;;;18.10;99.90;;;;;;5029500;28;20029;-71
2021/06/30 09:34:22;;;;;;;10.00;8.93;;;18.10;99.90;;;;;;5028960;28;20083;-71
2021/06/30 09:36:51;;;;;;;10.93;9.48;;;18.10;99.90;;;;;;5031199;28;20867;-71
2021/06/30 09:39:17;;;;;;;10.73;8.85;;;18.20;99.90;;;;;;5033272;28;20481;-71
2021/06/30 09:41:44;;;;;;;13.68;10.18;;;18.10;99.90;;;;;;5047986;28;20021;-72
2021/06/30 09:44:12;;;;;;;9.48;8.07;;;18.10;99.90;;;;;;5029391;28;20049;-71
2021/06/30 09:46:39;;;;;;;9.73;8.30;;;18.10;99.90;;;;;;5034057;28;20032;-72
2021/06/30 09:49:11;;;;;;;8.02;7.22;;;18.20;99.90;;;;;;5032371;28;20059;-72
2021/06/30 09:51:38;;;;;;;8.20;7.25;;;18.20;99.90;;;;;;5046309;28;20493;-72
2021/06/30 09:54:07;;;;;;;8.13;7.20;;;18.30;99.90;;;;;;5032183;28;20107;-72
2021/06/30 09:59:16;;;;;;;7.22;6.53;;;18.40;99.90;;;;;;5031743;28;20543;-72
2021/06/30 10:01:44;;;;;;;7.90;7.10;;;18.30;99.90;;;;;;5028446;28;20034;-71
2021/06/30 10:04:21;;;;;;;8.48;7.50;;;18.30;99.90;;;;;;5025051;28;20065;-71
2021/06/30 10:06:47;;;;;;;9.07;7.82;;;18.40;99.90;;;;;;5030793;28;20033;-72
2021/06/30 10:09:13;;;;;;;8.98;7.10;;;18.50;99.90;;;;;;5030954;28;20021;-72
2021/06/30 10:11:39;;;;;;;7.55;6.85;;;18.60;99.90;;;;;;5031126;28;20101;-72
2021/06/30 10:14:05;;;;;;;6.20;5.60;;;18.60;99.90;;;;;;5045167;28;20128;-72
2021/06/30 10:16:30;;;;;;;6.15;5.45;;;18.60;99.90;;;;;;5028389;28;20502;-72
2021/06/30 10:18:58;;;;;;;7.03;6.40;;;18.60;99.90;;;;;;5030577;28;20470;-72
2021/06/30 10:21:30;;;;;;;6.50;6.00;;;18.60;99.90;;;;;;5033196;28;20033;-72
2021/06/30 10:23:57;;;;;;;6.93;6.32;;;18.40;99.90;;;;;;5031078;28;20036;-71
2021/06/30 10:26:23;;;;;;;5.80;5.30;;;18.50;99.90;;;;;;5033352;28;20350;-71
2021/06/30 10:29:00;;;;;;;6.28;5.75;;;18.40;99.90;;;;;;5027671;28;20156;-70
2021/06/30 10:31:31;;;;;;;7.57;5.68;;;18.50;99.90;;;;;;5028247;28;20036;-71
2021/06/30 10:34:04;;;;;;;6.40;5.93;;;18.70;99.90;;;;;;5008114;28;20191;-72
2021/06/30 10:36:49;;;;;;;6.18;5.47;;;18.80;99.90;;;;;;5022727;28;20028;-71
2021/06/30 10:39:17;;;;;;;6.95;6.30;;;18.80;99.90;;;;;;5028069;28;20053;-72
2021/06/30 10:41:54;;;;;;;7.28;6.30;;;18.80;99.90;;;;;;5031360;28;20101;-70
2021/06/30 10:44:23;;;;;;;6.10;5.50;;;18.80;99.90;;;;;;5027124;28;20052;-70
2021/06/30 10:46:49;;;;;;;7.38;5.68;;;18.70;99.90;;;;;;5030099;28;20022;-72
2021/06/30 10:49:16;;;;;;;6.60;6.00;;;18.60;99.90;;;;;;5029729;28;20025;-72
2021/06/30 10:51:44;;;;;;;7.60;6.90;;;18.60;99.90;;;;;;5024272;28;20026;-72
2021/06/30 10:54:31;;;;;;;7.85;7.15;;;18.60;99.90;;;;;;5031230;28;20485;-72
2021/06/30 10:57:16;;;;;;;8.38;7.30;;;18.70;99.90;;;;;;5028603;28;20105;-72
2021/06/30 11:00:05;;;;;;;7.80;7.10;;;18.90;99.90;;;;;;5029677;28;20091;-72
2021/06/30 11:02:34;;;;;;;6.28;4.70;;;19.10;99.90;;;;;;5027063;28;20477;-72
2021/06/30 11:05:14;;;;;;;8.65;6.15;;;19.10;99.90;;;;;;5030249;28;20026;-73
2021/06/30 11:07:42;;;;;;;5.47;4.80;;;19.20;99.90;;;;;;5031991;28;20037;-72
2021/06/30 11:10:17;;;;;;;5.03;4.57;;;19.40;99.90;;;;;;5042911;28;20024;-72
2021/06/30 11:12:53;;;;;;;5.18;4.78;;;19.40;99.90;;;;;;5029023;28;20026;-72
2021/06/30 11:15:48;;;;;;;6.90;5.43;;;19.40;99.90;;;;;;5031713;28;20028;-72
2021/06/30 11:18:13;;;;;;;6.70;6.10;;;19.40;99.90;;;;;;5020950;28;20038;-73
2021/06/30 11:20:42;;;;;;;6.07;5.57;;;19.40;99.90;;;;;;5028234;28;20048;-72
2021/06/30 11:23:26;;;;;;;6.88;5.80;;;19.50;99.90;;;;;;5027695;28;20108;-72
2021/06/30 11:25:55;;;;;;;6.93;6.32;;;19.50;99.90;;;;;;5031744;28;20024;-73
2021/06/30 11:28:33;;;;;;;5.43;5.00;;;19.70;99.90;;;;;;5027168;28;20026;-72
2021/06/30 11:31:20;;;;;;;5.38;4.90;;;19.80;99.90;;;;;;5030538;28;20109;-72
2021/06/30 11:34:13;;;;;;;6.00;5.22;;;19.80;99.90;;;;;;5019973;28;20052;-72
2021/06/30 11:36:39;;;;;;;;;;;19.80;99.90;;;;;;5032160;28;20033;-72
2021/06/30 11:39:08;;;;;;;6.95;6.25;;;19.80;99.90;;;;;;5043306;28;19909;-72
2021/06/30 11:41:44;;;;;;;5.45;5.00;;;19.90;99.90;;;;;;5029960;28;20021;-72
2021/06/30 11:44:10;;;;;;;7.25;4.63;;;19.90;99.90;;;;;;5031330;28;20029;-72
2021/06/30 11:46:41;;;;;;;5.70;5.28;;;19.80;99.90;;;;;;5026074;28;20018;-72
2021/06/30 11:49:10;;;;;;;5.88;5.28;;;19.80;99.90;;;;;;5022935;28;20034;-72
2021/06/30 11:51:36;;;;;;;6.25;5.75;;;19.80;99.90;;;;;;5020476;28;20108;-72
2021/06/30 11:54:02;;;;;;;6.28;5.75;;;19.70;99.90;;;;;;5026634;28;20108;-72
2021/06/30 11:56:27;;;;;;;6.05;5.40;;;19.70;99.90;;;;;;5031424;28;20025;-72
2021/06/30 11:58:54;;;;;;;5.43;4.97;;;19.70;99.90;;;;;;5028865;28;20032;-72
2021/06/30 12:01:27;;;;;;;5.10;4.55;;;19.60;99.90;;;;;;5030097;28;20055;-72
2021/06/30 12:04:09;;;;;;;;;;;19.50;99.90;;;;;;5029269;28;20135;-72
2021/06/30 12:06:35;;;;;;;5.10;4.70;;;19.40;99.90;;;;;;5026683;28;19928;-72
2021/06/30 12:09:25;;;;;;;4.15;3.85;;;19.40;99.90;;;;;;5024446;28;20045;-72
2021/06/30 12:11:57;;;;;;;4.88;3.90;;;19.40;99.90;;;;;;5028630;28;20385;-72
2021/06/30 12:14:24;;;;;;;;;;;19.40;99.90;;;;;;5028598;28;20033;-72
2021/06/30 12:16:56;;;;;;;4.05;3.28;;;19.40;99.90;;;;;;5045704;28;20430;-72
2021/06/30 12:19:34;;;;;;;4.40;4.00;;;19.40;99.90;;;;;;5029429;28;20060;-72
2021/06/30 12:22:00;;;;;;;4.13;3.83;;;19.40;99.90;;;;;;5027304;28;20036;-72
2021/06/30 12:24:26;;;;;;;3.80;3.50;;;19.30;99.90;;;;;;5028334;28;20049;-72
2021/06/30 12:27:00;;;;;;;3.60;3.15;;;19.40;99.90;;;;;;5027208;28;20014;-72
2021/06/30 12:29:26;;;;;;;3.63;3.30;;;19.30;99.90;;;;;;5025801;28;20107;-72
2021/06/30 12:31:52;;;;;;;4.93;4.10;;;19.40;99.90;;;;;;5037050;28;20640;-73
2021/06/30 12:34:18;;;;;;;4.63;4.20;;;19.30;99.90;;;;;;5026166;28;20057;-72
2021/06/30 12:36:44;;;;;;;4.90;4.50;;;19.30;99.90;;;;;;5028471;28;20025;-72
2021/06/30 12:39:24;;;;;;;5.93;5.35;;;19.40;99.90;;;;;;5028458;28;20457;-72
2021/06/30 12:41:51;;;;;;;5.85;5.38;;;19.40;99.90;;;;;;5028642;28;20477;-72
2021/06/30 12:44:16;;;;;;;6.03;5.53;;;19.40;99.90;;;;;;5030700;28;20361;-73
2021/06/30 12:46:42;;;;;;;6.10;5.53;;;19.50;99.90;;;;;;5022988;28;20506;-72
2021/06/30 12:49:16;;;;;;;6.68;5.93;;;19.60;99.90;;;;;;5026991;28;20031;-72
2021/06/30 12:51:44;;;;;;;6.13;5.53;;;19.50;99.90;;;;;;5028223;28;20500;-72